Time;durP1;ratioP1;P1;durP2;ratioP2;P2;SDS_P1;SDS_P2;PMS_P1;PMS_P2;Temp;Humidity;BMP_temperature;BMP_pressure;BME280_temperature;BME280_humidity;BME280_pressure;Samples;Min_cycle;Max_cycle;Signal;HPM_P1;HPM_P2
2023/11/25 00:00:10;;;;;;;27.65;16.65;;;;;;;8.46;100.00;98346.44;4991072;28;20034;-72
2023/11/25 00:02:35;;;;;;;27.60;17.30;;;;;;;8.46;100.00;98343.88;4991355;28;20759;-70
2023/11/25 00:05:01;;;;;;;28.92;18.10;;;;;;;7.99;100.00;98267.94;4991719;28;20034;-70
2023/11/25 00:07:28;;;;;;;30.52;18.15;;;;;;;8.48;100.00;98347.38;4991381;28;20045;-69
2023/11/25 00:09:53;;;;;;;28.77;17.92;;;;;;;8.52;100.00;98337.16;4991360;28;20030;-69
2023/11/25 00:12:19;;;;;;;30.13;16.65;;;;;;;8.39;100.00;98330.09;4991052;28;20081;-69
2023/11/25 00:14:45;;;;;;;29.50;17.75;;;;;;;8.49;100.00;98336.25;4991504;28;20038;-68
2023/11/25 00:17:11;;;;;;;26.52;17.00;;;;;;;8.37;100.00;98326.66;4991975;28;20496;-68
2023/11/25 00:19:36;;;;;;;28.85;17.13;;;;;;;8.11;100.00;98296.34;4992018;28;20045;-69
2023/11/25 00:22:02;;;;;;;32.42;18.45;;;;;;;8.24;100.00;98336.78;4991928;28;20034;-69
2023/11/25 00:24:27;;;;;;;27.63;17.02;;;;;;;8.21;100.00;98318.78;4991451;28;20022;-69
2023/11/25 00:26:53;;;;;;;28.13;16.80;;;;;;;8.07;100.00;98292.91;4991558;28;20041;-70
2023/11/25 00:29:18;;;;;;;29.25;17.65;;;;;;;8.21;100.00;98303.34;4990813;28;20147;-74
2023/11/25 00:31:48;;;;;;;29.23;16.90;;;;;;;8.12;100.00;98299.81;4991352;28;20026;-67
2023/11/25 00:34:14;;;;;;;27.75;17.05;;;;;;;8.21;100.00;98311.06;4979258;28;20018;-69
2023/11/25 00:36:40;;;;;;;28.83;17.48;;;;;;;7.71;100.00;98224.84;4991293;28;20108;-69
2023/11/25 00:39:06;;;;;;;29.17;17.60;;;;;;;8.26;100.00;98309.41;4991549;28;20042;-69
2023/11/25 00:41:34;;;;;;;31.25;17.73;;;;;;;8.31;100.00;98293.16;4990967;28;20037;-72
2023/11/25 00:43:59;;;;;;;28.02;17.33;;;;;;;7.84;100.00;98192.44;4991147;28;20097;-68
2023/11/25 00:46:25;;;;;;;26.65;16.50;;;;;;;7.98;100.00;98196.88;4989895;28;20516;-68
2023/11/25 00:48:52;;;;;;;26.92;17.35;;;;;;;8.51;100.00;98260.84;4991156;28;20433;-70
2023/11/25 00:51:18;;;;;;;27.10;15.98;;;;;;;8.40;100.00;98224.69;4991057;28;20034;-71
2023/11/25 00:53:43;;;;;;;26.92;16.60;;;;;;;8.34;100.00;98204.06;4972757;28;20130;-72
2023/11/25 00:56:10;;;;;;;25.85;15.52;;;;;;;8.61;100.00;98228.34;4990541;28;20105;-71
2023/11/25 00:58:36;;;;;;;30.25;17.20;;;;;;;8.62;100.00;98229.19;4990870;28;20035;-68
2023/11/25 01:01:01;;;;;;;23.20;15.73;;;;;;;8.58;100.00;98230.88;5021467;28;20104;-69
2023/11/25 01:03:27;;;;;;;28.40;17.05;;;;;;;8.05;100.00;98171.25;4991377;28;20029;-70
2023/11/25 01:05:53;;;;;;;33.55;19.33;;;;;;;8.34;100.00;98223.78;4990536;28;20428;-74
2023/11/25 01:08:20;;;;;;;28.40;16.67;;;;;;;8.34;100.00;98227.22;5005238;28;20460;-69
2023/11/25 01:10:45;;;;;;;27.75;15.82;;;;;;;8.36;100.00;98238.38;4990298;28;20030;-72
2023/11/25 01:13:11;;;;;;;26.77;16.10;;;;;;;8.45;100.00;98222.19;4990820;28;20031;-68
2023/11/25 01:15:36;;;;;;;25.48;15.63;;;;;;;8.52;100.00;98211.13;4990459;28;20042;-70
2023/11/25 01:18:02;;;;;;;24.58;15.73;;;;;;;8.51;100.00;98199.13;4990934;28;20062;-70
2023/11/25 01:20:28;;;;;;;26.38;15.63;;;;;;;8.13;100.00;98113.94;4990877;28;20031;-69
2023/11/25 01:22:53;;;;;;;24.83;16.20;;;;;;;8.57;100.00;98178.59;4990745;28;20124;-73
2023/11/25 01:25:19;;;;;;;28.05;16.00;;;;;;;8.67;100.00;98187.25;4990255;28;20034;-70
2023/11/25 01:27:44;;;;;;;22.13;14.30;;;;;;;8.53;100.00;98147.69;4990538;28;20500;-70
2023/11/25 01:30:10;;;;;;;23.52;14.90;;;;;;;7.99;100.00;98044.41;4990282;28;20080;-72
2023/11/25 01:32:36;;;;;;;25.30;14.23;;;;;;;8.73;100.00;98147.81;4990880;28;20034;-70
2023/11/25 01:35:02;;;;;;;23.55;15.43;;;;;;;8.45;100.00;98090.16;4990518;28;20044;-69
2023/11/25 01:37:29;;;;;;;26.27;14.55;;;;;;;8.96;100.00;98157.41;4990508;28;20093;-69
2023/11/25 01:39:55;;;;;;;23.08;14.38;;;;;;;8.95;100.00;98150.53;4990303;28;20053;-69
2023/11/25 01:42:20;;;;;;;26.45;14.13;;;;;;;9.07;100.00;98153.19;4990467;28;20046;-69
2023/11/25 01:44:46;;;;;;;20.35;12.98;;;;;;;9.08;100.00;98144.59;4990311;28;20038;-69
2023/11/25 01:47:13;;;;;;;18.67;10.40;;;;;;;9.15;100.00;98145.53;4990419;28;20030;-68
2023/11/25 01:49:40;;;;;;;21.77;11.20;;;;;;;9.14;100.00;98115.47;4990650;28;20050;-69
2023/11/25 01:52:08;;;;;;;16.65;10.75;;;;;;;9.43;100.00;98131.03;4993496;28;20033;-68
2023/11/25 01:54:35;;;;;;;16.83;9.13;;;;;;;9.35;100.00;98101.84;4993847;28;20473;-69
2023/11/25 01:57:02;;;;;;;18.63;8.93;;;;;;;9.62;100.00;98143.97;4994487;28;20072;-69
2023/11/25 01:59:29;;;;;;;16.63;9.60;;;;;;;9.75;100.00;98125.13;4993885;28;20039;-69
2023/11/25 02:01:56;;;;;;;12.88;8.35;;;;;;;9.83;100.00;98127.72;4994644;28;20029;-68
2023/11/25 02:04:22;;;;;;;10.93;6.85;;;;;;;9.96;100.00;98123.47;4993923;28;20026;-68
2023/11/25 02:06:49;;;;;;;17.90;9.27;;;;;;;9.94;100.00;98114.84;4994283;28;20030;-69
2023/11/25 02:09:16;;;;;;;20.17;10.82;;;;;;;9.74;100.00;98097.63;4993464;28;20063;-68
2023/11/25 02:11:58;;;;;;;18.05;11.10;;;;;;;9.24;100.00;98055.44;4994585;28;20026;-69
2023/11/25 02:14:27;;;;;;;21.55;10.40;;;;;;;9.54;100.00;98116.50;4993944;28;20022;-69
2023/11/25 02:16:55;;;;;;;19.48;10.93;;;;;;;9.50;100.00;98119.06;4994075;28;20084;-69
2023/11/25 02:19:21;;;;;;;19.60;10.63;;;;;;;9.41;100.00;98113.84;4992754;28;20134;-68
2023/11/25 02:21:47;;;;;;;19.73;11.88;;;;;;;9.44;100.00;98116.47;4993253;28;20062;-68
2023/11/25 02:24:13;;;;;;;16.38;9.90;;;;;;;9.45;100.00;98116.44;4993424;28;20061;-69
2023/11/25 02:26:39;;;;;;;16.60;11.23;;;;;;;9.41;100.00;98100.97;4993731;28;20034;-68
2023/11/25 02:29:05;;;;;;;20.15;12.43;;;;;;;8.90;100.00;98016.72;4992805;28;20026;-68
2023/11/25 02:31:31;;;;;;;20.67;12.43;;;;;;;9.33;100.00;98088.97;4993809;28;20030;-68
2023/11/25 02:33:57;;;;;;;18.05;12.35;;;;;;;9.25;100.00;98082.91;4993327;28;20035;-68
2023/11/25 02:36:23;;;;;;;19.80;12.90;;;;;;;9.21;100.00;98094.91;4993342;28;20030;-68
2023/11/25 02:38:49;;;;;;;20.10;12.20;;;;;;;9.12;100.00;98071.72;4993385;28;20106;-68
2023/11/25 02:41:15;;;;;;;31.50;13.30;;;;;;;9.30;100.00;98090.66;4992169;28;20089;-69
2023/11/25 02:43:40;;;;;;;19.80;12.80;;;;;;;9.32;100.00;98086.34;4992830;28;20066;-68
2023/11/25 02:46:07;;;;;;;19.90;11.88;;;;;;;9.32;100.00;98087.22;4993472;28;20030;-68
2023/11/25 02:48:35;;;;;;;22.73;13.32;;;;;;;9.33;100.00;98082.94;4992598;28;20038;-68
2023/11/25 02:51:01;;;;;;;18.73;11.95;;;;;;;9.12;100.00;98030.53;4993424;28;20656;-69
2023/11/25 02:53:26;;;;;;;19.17;12.50;;;;;;;9.33;100.00;98050.34;4993001;28;20053;-68
2023/11/25 02:55:52;;;;;;;18.25;10.98;;;;;;;9.27;100.00;98054.59;4993343;28;20032;-69
2023/11/25 02:58:17;;;;;;;20.90;11.40;;;;;;;9.40;100.00;98069.22;4993009;28;20014;-69
2023/11/25 03:00:43;;;;;;;21.40;11.45;;;;;;;9.08;100.00;97985.03;4993236;28;20113;-69
2023/11/25 03:03:12;;;;;;;24.80;12.10;;;;;;;9.45;100.00;98064.94;4991641;28;20042;-70
2023/11/25 03:05:42;;;;;;;17.10;10.82;;;;;;;9.39;100.00;98044.31;4992995;28;20384;-68
2023/11/25 03:08:11;;;;;;;22.65;11.93;;;;;;;9.36;100.00;98052.06;4993163;28;20022;-66
2023/11/25 03:10:39;;;;;;;17.63;11.38;;;;;;;9.34;100.00;98049.47;4993204;28;20031;-68
2023/11/25 03:13:04;;;;;;;14.68;8.82;;;;;;;9.39;100.00;98034.03;4992908;28;20037;-68
2023/11/25 03:15:31;;;;;;;9.07;2.40;;;;;;;10.40;100.00;98018.63;4991713;28;20566;-67
2023/11/25 03:17:57;;;;;;;2.92;1.55;;;;;;;11.21;100.00;98011.44;4992092;28;20069;-68
2023/11/25 03:20:23;;;;;;;4.03;1.75;;;;;;;11.57;100.00;98001.75;4992762;28;20113;-69
2023/11/25 03:22:48;;;;;;;4.13;1.48;;;;;;;11.49;100.00;97930.31;4992467;28;20054;-69
2023/11/25 03:25:14;;;;;;;3.22;1.42;;;;;;;11.68;100.00;97917.25;4992843;28;20229;-68
2023/11/25 03:27:40;;;;;;;3.17;1.38;;;;;;;11.98;100.00;97948.91;4992281;28;20543;-67
2023/11/25 03:30:07;;;;;;;1.45;1.20;;;;;;;12.44;100.00;97989.81;4992536;28;20030;-68
2023/11/25 03:32:34;;;;;;;2.72;1.20;;;;;;;12.50;100.00;97982.84;4989543;28;20468;-68
2023/11/25 03:35:00;;;;;;;3.38;1.27;;;;;;;12.60;100.00;98006.03;4990024;28;20057;-69
2023/11/25 03:37:26;;;;;;;3.53;1.45;;;;;;;12.59;100.00;97981.03;4989895;28;20030;-70
2023/11/25 03:39:51;;;;;;;3.70;1.40;;;;;;;12.73;100.00;97991.22;4989986;28;20067;-70
2023/11/25 03:42:19;;;;;;;5.38;1.75;;;;;;;12.67;100.00;97985.25;4989980;28;20057;-69
2023/11/25 03:44:46;;;;;;;2.97;1.65;;;;;;;12.50;100.00;97962.16;4989389;28;20436;-71
2023/11/25 03:47:13;;;;;;;3.28;2.33;;;;;;;12.09;100.00;97916.03;4989632;28;20037;-70
2023/11/25 03:49:39;;;;;;;3.88;1.63;;;;;;;12.50;100.00;97985.44;4989280;28;20094;-69
2023/11/25 03:52:05;;;;;;;2.92;1.40;;;;;;;12.26;100.00;97957.25;4989826;28;20524;-72
2023/11/25 03:54:33;;;;;;;3.53;1.60;;;;;;;12.34;100.00;97967.50;4989481;28;20041;-69
2023/11/25 03:56:58;;;;;;;4.40;1.80;;;;;;;11.90;100.00;97892.06;4989590;28;20560;-69
2023/11/25 03:59:24;;;;;;;3.72;1.13;;;;;;;12.35;100.00;97971.81;4989410;28;20109;-68
2023/11/25 04:01:50;;;;;;;4.20;1.60;;;;;;;12.34;100.00;97962.34;4989111;28;20062;-69
2023/11/25 04:04:16;;;;;;;3.72;1.35;;;;;;;12.38;100.00;97961.41;4989377;28;20049;-69
2023/11/25 04:06:42;;;;;;;3.33;1.92;;;;;;;12.38;100.00;97950.22;4989386;28;20614;-68
2023/11/25 04:09:07;;;;;;;4.28;1.40;;;;;;;12.36;100.00;97950.25;4989562;28;20049;-68
2023/11/25 04:11:33;;;;;;;3.13;1.38;;;;;;;12.29;100.00;97940.84;4992049;28;20062;-74
2023/11/25 04:13:59;;;;;;;3.42;1.50;;;;;;;12.26;100.00;97939.13;4990933;28;20496;-69
2023/11/25 04:16:25;;;;;;;3.85;1.83;;;;;;;12.25;100.00;97940.00;4991386;28;20491;-68
2023/11/25 04:18:50;;;;;;;5.60;2.10;;;;;;;12.18;100.00;97924.56;4991649;28;20034;-69
2023/11/25 04:21:21;;;;;;;5.55;1.63;;;;;;;12.28;100.00;97923.59;4991817;28;20037;-69
2023/11/25 04:23:55;;;;;;;2.88;1.40;;;;;;;12.17;100.00;97907.34;4991222;28;20507;-69
2023/11/25 04:26:21;;;;;;;4.63;1.60;;;;;;;12.24;100.00;97921.94;4991880;28;20034;-68
2023/11/25 04:28:47;;;;;;;4.40;1.70;;;;;;;12.20;100.00;97904.72;4991323;28;20026;-69
2023/11/25 04:31:14;;;;;;;4.30;1.73;;;;;;;12.37;100.00;97940.75;4991699;28;20030;-69
2023/11/25 04:33:39;;;;;;;4.05;1.63;;;;;;;12.33;100.00;97916.63;4991266;28;20074;-67
2023/11/25 04:36:05;;;;;;;5.85;1.90;;;;;;;12.30;100.00;97903.75;4991487;28;20058;-71
2023/11/25 04:38:31;;;;;;;4.05;1.50;;;;;;;12.43;100.00;97928.59;4991068;28;20121;-68
2023/11/25 04:40:56;;;;;;;6.65;1.80;;;;;;;12.26;100.00;97910.69;4991243;28;20045;-68
2023/11/25 04:43:22;;;;;;;8.32;1.80;;;;;;;12.44;100.00;97929.47;4989281;28;20041;-68
2023/11/25 04:45:48;;;;;;;2.60;1.60;;;;;;;12.41;100.00;97922.59;4991350;28;20109;-67
2023/11/25 04:48:13;;;;;;;4.63;1.90;;;;;;;12.37;100.00;97889.00;4990914;28;20520;-69
2023/11/25 04:50:39;;;;;;;4.80;1.60;;;;;;;12.42;100.00;97897.56;4991225;28;20062;-70
2023/11/25 04:53:05;;;;;;;2.67;1.45;;;;;;;12.19;100.00;97846.13;4991179;28;20034;-72
2023/11/25 04:55:31;;;;;;;5.38;1.58;;;;;;;12.42;100.00;97888.09;4990844;28;20112;-72
2023/11/25 04:57:57;;;;;;;3.58;1.73;;;;;;;12.39;100.00;97888.09;4990358;28;20485;-67
2023/11/25 05:00:22;;;;;;;6.15;1.73;;;;;;;12.36;100.00;97877.81;4991258;28;20026;-69
2023/11/25 05:02:48;;;;;;;5.00;2.25;;;;;;;12.29;100.00;97855.47;4991127;28;20481;-69
2023/11/25 05:05:13;;;;;;;4.68;2.03;;;;;;;12.42;100.00;97892.38;4991211;28;20033;-69
2023/11/25 05:07:39;;;;;;;5.38;2.35;;;;;;;12.37;100.00;97889.00;4991262;28;20501;-69
2023/11/25 05:10:06;;;;;;;4.25;2.00;;;;;;;12.21;100.00;97872.78;4990949;28;20030;-68
2023/11/25 05:12:32;;;;;;;5.32;1.95;;;;;;;12.14;100.00;97861.69;4990057;28;20034;-69
2023/11/25 05:14:57;;;;;;;3.67;1.80;;;;;;;11.81;100.00;97799.97;4989770;28;20030;-69
2023/11/25 05:17:25;;;;;;;6.07;2.53;;;;;;;12.07;100.00;97842.78;4990635;28;20085;-67
2023/11/25 05:19:51;;;;;;;6.88;2.97;;;;;;;12.18;100.00;97868.53;5004897;28;20117;-69
2023/11/25 05:22:17;;;;;;;3.97;1.88;;;;;;;12.16;100.00;97878.00;4990294;28;20793;-70
2023/11/25 05:24:42;;;;;;;4.68;2.45;;;;;;;12.01;100.00;97860.94;4990508;28;20026;-66
2023/11/25 05:27:08;;;;;;;7.30;1.98;;;;;;;11.67;100.00;97803.56;4994308;28;20428;-69
2023/11/25 05:29:34;;;;;;;7.22;2.80;;;;;;;11.99;100.00;97867.88;4993780;28;20026;-69
2023/11/25 05:32:00;;;;;;;5.72;2.30;;;;;;;12.08;100.00;97888.44;4994781;28;20069;-69
2023/11/25 05:34:26;;;;;;;10.93;2.60;;;;;;;12.07;100.00;97881.56;4993845;28;20462;-69
2023/11/25 05:36:52;;;;;;;6.38;2.40;;;;;;;12.01;100.00;97868.69;4990098;28;20399;-70
2023/11/25 05:39:20;;;;;;;6.25;2.67;;;;;;;12.06;100.00;97882.47;4994795;28;20030;-69
2023/11/25 05:41:46;;;;;;;6.88;2.10;;;;;;;12.04;100.00;97875.59;4994548;28;20030;-70
2023/11/25 05:44:12;;;;;;;6.75;2.30;;;;;;;11.98;100.00;97867.00;4994263;28;20027;-69
2023/11/25 05:46:38;;;;;;;7.25;2.50;;;;;;;11.96;100.00;97873.06;4994268;28;20023;-69
2023/11/25 05:49:04;;;;;;;5.50;2.30;;;;;;;11.91;100.00;97870.53;4994103;28;20571;-67
2023/11/25 05:51:34;;;;;;;6.22;2.40;;;;;;;11.68;100.00;97831.97;4994036;28;20036;-69
2023/11/25 05:54:01;;;;;;;10.50;2.83;;;;;;;11.88;100.00;97843.84;4993971;28;20069;-70
2023/11/25 05:56:27;;;;;;;4.97;2.17;;;;;;;11.94;100.00;97844.63;4993546;28;20034;-70
2023/11/25 05:58:53;;;;;;;7.70;2.67;;;;;;;11.87;100.00;97835.22;4993858;28;20030;-72
2023/11/25 06:01:21;;;;;;;6.43;2.50;;;;;;;12.06;100.00;97864.34;4993870;28;20057;-69
2023/11/25 06:03:50;;;;;;;6.88;2.75;;;;;;;12.00;100.00;97848.03;4984048;28;20624;-69
2023/11/25 06:06:16;;;;;;;6.40;2.27;;;;;;;12.03;100.00;97840.25;4991165;28;20525;-68
2023/11/25 06:08:42;;;;;;;6.25;2.83;;;;;;;12.04;100.00;97823.88;4983189;28;20648;-67
2023/11/25 06:11:07;;;;;;;6.93;2.05;;;;;;;12.18;100.00;97849.56;4991650;28;20034;-69
2023/11/25 06:13:33;;;;;;;4.30;1.98;;;;;;;11.91;100.00;97789.50;4993659;28;20169;-67
2023/11/25 06:15:58;;;;;;;4.53;2.20;;;;;;;11.78;100.00;97753.44;4990517;28;20097;-69
2023/11/25 06:18:24;;;;;;;8.95;3.03;;;;;;;12.35;100.00;97850.22;4993682;28;20034;-69
2023/11/25 06:20:50;;;;;;;7.38;2.70;;;;;;;11.74;100.00;97741.44;4992210;28;20031;-70
2023/11/25 06:23:16;;;;;;;8.15;2.25;;;;;;;12.45;100.00;97838.88;4993573;28;20481;-69
2023/11/25 06:25:42;;;;;;;7.88;2.53;;;;;;;12.44;100.00;97838.91;4991568;28;20117;-70
2023/11/25 06:28:12;;;;;;;9.75;3.00;;;;;;;12.51;100.00;97843.13;4993725;28;20030;-70
2023/11/25 06:30:39;;;;;;;18.25;4.30;;;;;;;12.55;100.00;97846.53;4993253;28;20026;-69
2023/11/25 06:33:05;;;;;;;26.85;4.40;;;;;;;12.57;100.00;97839.56;5007281;28;20042;-68
2023/11/25 06:35:31;;;;;;;9.35;3.03;;;;;;;12.56;100.00;97851.69;4993246;28;20157;-71
2023/11/25 06:37:58;;;;;;;5.95;3.20;;;;;;;12.54;100.00;97852.56;5003965;28;20133;-68
2023/11/25 06:40:24;;;;;;;12.68;3.20;;;;;;;12.40;100.00;97842.38;4993155;28;20142;-69
2023/11/25 06:42:49;;;;;;;5.75;3.10;;;;;;;12.42;100.00;97851.84;4993508;28;20533;-69
2023/11/25 06:45:15;;;;;;;8.77;4.55;;;;;;;12.51;100.00;97876.75;4992970;28;20026;-69
2023/11/25 06:47:40;;;;;;;10.48;4.05;;;;;;;12.41;100.00;97864.78;4993326;28;20037;-69
2023/11/25 06:50:06;;;;;;;6.85;4.10;;;;;;;12.45;100.00;97843.19;4993455;28;20127;-73
2023/11/25 06:52:31;;;;;;;7.72;3.13;;;;;;;12.60;100.00;97862.84;4992865;28;20026;-69
2023/11/25 06:55:00;;;;;;;7.43;3.28;;;;;;;12.53;100.00;97851.69;4993211;28;20496;-73
2023/11/25 06:57:26;;;;;;;7.97;3.05;;;;;;;12.62;100.00;97861.94;4992925;28;20473;-69
2023/11/25 06:59:52;;;;;;;7.93;2.88;;;;;;;12.22;100.00;97778.81;4992899;28;20036;-69
2023/11/25 07:02:18;;;;;;;8.35;2.65;;;;;;;12.52;100.00;97821.50;4992493;28;20026;-70
2023/11/25 07:04:44;;;;;;;8.57;3.10;;;;;;;12.68;100.00;97847.19;4992579;28;20397;-69
2023/11/25 07:07:10;;;;;;;24.77;9.75;;;;;;;12.75;100.00;97843.66;4992259;28;20400;-67
2023/11/25 07:09:35;;;;;;;38.00;14.25;;;;;;;12.70;100.00;97825.59;4992377;28;20113;-69
2023/11/25 07:12:04;;;;;;;26.58;10.90;;;;;;;12.75;100.00;97828.13;4992497;28;20063;-69
2023/11/25 07:14:29;;;;;;;33.17;13.90;;;;;;;12.71;100.00;97818.66;4990987;28;20022;-70
2023/11/25 07:16:56;;;;;;;50.85;17.88;;;;;;;12.78;100.00;97823.75;4991352;28;20115;-69
2023/11/25 07:19:22;;;;;;;40.60;14.25;;;;;;;12.62;100.00;97786.00;4991263;28;20026;-71
2023/11/25 07:21:47;;;;;;;41.97;12.90;;;;;;;12.53;100.00;97766.28;5017758;28;20053;-72
2023/11/25 07:24:13;;;;;;;35.47;15.52;;;;;;;12.74;100.00;97805.69;4992393;28;20030;-69
2023/11/25 07:26:42;;;;;;;35.13;13.48;;;;;;;12.69;100.00;97807.50;4990794;28;20031;-74
2023/11/25 07:29:10;;;;;;;34.78;13.60;;;;;;;12.69;100.00;97808.34;4992747;28;20038;-70
2023/11/25 07:31:36;;;;;;;15.60;6.57;;;;;;;12.76;100.00;97814.28;4992765;28;20045;-68
2023/11/25 07:34:03;;;;;;;10.45;5.30;;;;;;;12.51;100.00;97770.66;4992822;28;20077;-69
2023/11/25 07:36:29;;;;;;;7.15;3.35;;;;;;;12.87;100.00;97812.41;4992632;28;20037;-69
2023/11/25 07:38:54;;;;;;;6.35;3.25;;;;;;;12.89;100.00;97805.47;4992802;28;20018;-67
2023/11/25 07:41:20;;;;;;;9.80;3.47;;;;;;;12.97;100.00;97804.50;4992831;28;20092;-70
2023/11/25 07:43:46;;;;;;;8.65;3.00;;;;;;;12.95;100.00;97787.22;4992550;28;20402;-70
2023/11/25 07:46:12;;;;;;;7.28;3.40;;;;;;;13.03;100.00;97806.97;4991257;28;20030;-70
2023/11/25 07:48:37;;;;;;;7.32;3.13;;;;;;;13.02;100.00;97800.09;4990061;28;20038;-70
2023/11/25 07:51:04;;;;;;;8.73;3.58;;;;;;;13.01;100.00;97799.25;4992355;28;20120;-70
2023/11/25 07:53:30;;;;;;;5.47;3.28;;;;;;;13.02;100.00;97800.97;4992452;28;20097;-70
2023/11/25 07:55:55;;;;;;;10.88;3.22;;;;;;;13.06;100.00;97791.38;4992585;28;20030;-70
2023/11/25 07:58:22;;;;;;;8.10;3.00;;;;;;;13.02;100.00;97788.00;4992544;28;20030;-68
2023/11/25 08:00:49;;;;;;;8.63;3.20;;;;;;;12.94;100.00;97764.81;4992298;28;20027;-68
2023/11/25 08:03:15;;;;;;;11.27;3.70;;;;;;;13.04;100.00;97764.66;4992074;28;20090;-69
2023/11/25 08:05:41;;;;;;;9.20;3.92;;;;;;;13.14;100.00;97773.97;4991668;28;20073;-68
2023/11/25 08:08:07;;;;;;;7.97;3.58;;;;;;;13.21;100.00;97779.94;4991685;28;20022;-72
2023/11/25 08:10:34;;;;;;;10.93;3.78;;;;;;;13.18;100.00;97759.25;4992283;28;20030;-70
2023/11/25 08:13:00;;;;;;;11.52;3.58;;;;;;;13.06;100.00;97730.09;4989857;28;20042;-69
2023/11/25 08:15:26;;;;;;;10.02;3.70;;;;;;;13.32;100.00;97770.25;4991930;28;20527;-69
2023/11/25 08:17:52;;;;;;;10.23;4.03;;;;;;;13.39;100.00;97771.84;4991370;28;20038;-69
2023/11/25 08:20:17;;;;;;;9.85;3.70;;;;;;;13.40;100.00;97765.78;4992074;28;20096;-69
2023/11/25 08:22:43;;;;;;;8.75;3.95;;;;;;;13.42;100.00;97769.22;4991760;28;20492;-70
2023/11/25 08:25:09;;;;;;;12.10;4.47;;;;;;;13.39;100.00;97737.31;4991623;28;20481;-69
2023/11/25 08:27:35;;;;;;;8.95;3.97;;;;;;;13.52;100.00;97746.56;4991665;28;20489;-69
2023/11/25 08:30:01;;;;;;;8.35;3.53;;;;;;;13.59;100.00;97743.00;4991883;28;20444;-69
2023/11/25 08:32:27;;;;;;;8.10;4.05;;;;;;;13.68;100.00;97739.38;5006601;28;20097;-69
2023/11/25 08:34:52;;;;;;;17.88;7.95;;;;;;;13.78;100.00;97765.09;4991789;28;20053;-69
2023/11/25 08:37:19;;;;;;;13.50;7.60;;;;;;;13.58;100.00;97763.72;4991488;28;20034;-69
2023/11/25 08:39:45;;;;;;;14.25;8.05;;;;;;;13.38;100.00;97777.94;4991507;28;20607;-69
2023/11/25 08:42:14;;;;;;;13.25;7.60;;;;;;;13.10;100.00;97770.59;4991324;28;20034;-69
2023/11/25 08:44:43;;;;;;;13.55;7.07;;;;;;;12.88;100.00;97766.66;4991293;28;20587;-70
2023/11/25 08:47:08;;;;;;;16.90;9.23;;;;;;;12.78;100.00;97772.00;4991250;28;20030;-70
2023/11/25 08:49:34;;;;;;;21.15;10.20;;;;;;;12.69;100.00;97764.34;4991420;28;20653;-69
2023/11/25 08:51:59;;;;;;;15.10;8.80;;;;;;;12.49;100.00;97762.06;4991638;28;20027;-69
2023/11/25 08:54:25;;;;;;;15.38;8.00;;;;;;;12.25;100.00;97748.59;4991720;28;20038;-72
2023/11/25 08:56:53;;;;;;;13.25;8.90;;;;;;;12.13;100.00;97747.00;4991206;28;20515;-66
2023/11/25 08:59:20;;;;;;;16.00;8.68;;;;;;;11.98;100.00;97750.66;4991155;28;20053;-67
2023/11/25 09:01:47;;;;;;;15.55;8.27;;;;;;;11.62;100.00;97695.06;4990178;28;20030;-69
2023/11/25 09:04:16;;;;;;;12.73;7.28;;;;;;;11.89;100.00;97762.84;4991105;28;20030;-68
2023/11/25 09:06:45;;;;;;;11.77;6.78;;;;;;;11.56;100.00;97715.81;4991304;28;20069;-69
2023/11/25 09:09:14;;;;;;;;;;;;;;;11.74;100.00;97744.03;4989416;28;20045;-69
2023/11/25 09:11:39;;;;;;;10.43;7.03;;;;;;;11.63;100.00;97738.13;4991362;28;20354;-70
2023/11/25 09:14:06;;;;;;;13.82;7.47;;;;;;;11.43;100.00;97702.19;4990781;28;20034;-69
2023/11/25 09:16:31;;;;;;;10.07;6.05;;;;;;;11.70;100.00;97747.53;4991142;28;20030;-70
2023/11/25 09:18:57;;;;;;;7.80;4.85;;;;;;;11.69;100.00;97756.16;4990376;28;20037;-68
2023/11/25 09:21:23;;;;;;;9.68;4.45;;;;;;;11.64;100.00;97745.03;4987828;28;20019;-69
2023/11/25 09:23:48;;;;;;;8.30;4.38;;;;;;;11.62;100.00;97749.34;4980044;28;20429;-69
2023/11/25 09:26:14;;;;;;;7.90;5.55;;;;;;;11.66;100.00;97748.41;4980938;28;20080;-69
2023/11/25 09:28:40;;;;;;;10.82;4.53;;;;;;;11.62;100.00;97744.16;4971286;28;20042;-67
2023/11/25 09:31:06;;;;;;;8.45;4.50;;;;;;;11.61;100.00;97748.50;4988269;28;20027;-68
2023/11/25 09:33:32;;;;;;;6.50;3.72;;;;;;;11.52;100.00;97751.16;4982640;28;20105;-70
2023/11/25 09:35:57;;;;;;;11.02;6.22;;;;;;;11.47;100.00;97750.34;4981415;28;20496;-71
2023/11/25 09:38:23;;;;;;;9.60;4.53;;;;;;;11.37;100.00;97741.84;4981098;28;20022;-69
2023/11/25 09:40:49;;;;;;;4.45;2.97;;;;;;;11.29;100.00;97734.19;4979358;28;20486;-69
2023/11/25 09:43:17;;;;;;;5.30;2.35;;;;;;;11.19;100.00;97721.38;4973331;28;20031;-68
2023/11/25 09:45:44;;;;;;;5.22;2.55;;;;;;;11.25;100.00;97734.22;4985124;28;20026;-70
2023/11/25 09:48:10;;;;;;;9.10;2.78;;;;;;;11.12;100.00;97734.34;4984200;28;20022;-69
2023/11/25 09:50:36;;;;;;;6.30;3.10;;;;;;;11.12;100.00;97743.81;4979331;28;20070;-68
2023/11/25 09:53:15;;;;;;;5.43;2.90;;;;;;;10.79;100.00;97695.06;4980710;28;20467;-70
2023/11/25 09:55:51;;;;;;;5.68;3.08;;;;;;;10.95;100.00;97743.97;4981700;28;20026;-71
2023/11/25 09:58:17;;;;;;;5.97;2.95;;;;;;;10.93;100.00;97736.25;4979215;28;20023;-69
2023/11/25 10:00:43;;;;;;;4.80;2.90;;;;;;;10.90;100.00;97732.81;4984802;28;20495;-73
2023/11/25 10:03:12;;;;;;;5.65;3.45;;;;;;;10.74;100.00;97720.06;4972633;28;20537;-71
2023/11/25 10:05:37;;;;;;;7.00;3.20;;;;;;;10.85;100.00;97738.00;4971288;28;20039;-69
2023/11/25 10:08:04;;;;;;;5.20;3.50;;;;;;;10.82;100.00;97731.16;4971362;28;20058;-70
2023/11/25 10:10:30;;;;;;;6.13;3.10;;;;;;;10.76;100.00;97741.53;4988965;28;20026;-76
2023/11/25 10:12:57;;;;;;;6.35;3.13;;;;;;;10.68;100.00;97712.38;4992986;28;20044;-67
2023/11/25 10:15:24;;;;;;;8.38;3.90;;;;;;;10.43;100.00;97660.97;4993640;28;20026;-70
2023/11/25 10:17:50;;;;;;;7.93;3.03;;;;;;;10.74;100.00;97704.56;4993000;28;20525;-69
2023/11/25 10:20:22;;;;;;;3.83;2.60;;;;;;;10.71;100.00;97709.75;4993643;28;20040;-69
2023/11/25 10:22:49;;;;;;;4.35;2.30;;;;;;;10.22;100.00;97661.94;4989427;28;20030;-70
2023/11/25 10:25:21;;;;;;;3.65;1.90;;;;;;;10.51;100.00;97709.91;4986514;28;20038;-70
2023/11/25 10:27:47;;;;;;;3.55;1.58;;;;;;;9.94;100.00;97626.03;4982961;28;20030;-70
2023/11/25 10:30:17;;;;;;;2.78;1.30;;;;;;;9.69;100.00;97610.75;4974968;28;20030;-72
2023/11/25 10:32:42;;;;;;;5.45;1.33;;;;;;;9.88;100.00;97685.34;4977543;28;20104;-70
2023/11/25 10:35:09;;;;;;;2.85;1.30;;;;;;;9.94;100.00;97720.53;4991856;28;20552;-69
2023/11/25 10:37:38;;;;;;;1.92;1.30;;;;;;;10.01;100.00;97753.16;4983159;28;20125;-69
2023/11/25 10:40:06;;;;;;;4.57;1.67;;;;;;;9.92;100.00;97742.88;4994929;28;20042;-69
2023/11/25 10:42:32;;;;;;;3.05;1.33;;;;;;;9.46;100.00;97670.06;4986156;28;20034;-69
2023/11/25 10:44:59;;;;;;;2.78;1.13;;;;;;;9.98;100.00;97748.88;4988742;28;20416;-69
2023/11/25 10:47:33;;;;;;;2.83;1.17;;;;;;;9.54;100.00;97678.63;4991231;28;20038;-67
2023/11/25 10:50:03;;;;;;;6.90;1.75;;;;;;;9.95;100.00;97750.59;4992683;28;20050;-69
2023/11/25 10:52:32;;;;;;;3.40;1.60;;;;;;;9.88;100.00;97798.72;4979516;28;20045;-69
2023/11/25 10:54:59;;;;;;;5.45;2.55;;;;;;;9.01;100.00;97759.41;4983462;28;20023;-69
2023/11/25 10:57:26;;;;;;;4.00;2.70;;;;;;;8.90;100.00;97831.47;4979185;28;20066;-73
2023/11/25 11:00:10;;;;;;;3.35;1.73;;;;;;;8.49;100.00;97773.97;4986249;28;20033;-75
2023/11/25 11:03:04;;;;;;;13.15;8.45;;;;;;;8.35;100.00;97822.75;4972145;28;20414;-73
2023/11/25 11:05:49;;;;;;;6.55;2.40;;;;;;;7.67;100.00;97736.84;4991414;28;20046;-72
2023/11/25 11:08:36;;;;;;;4.10;2.08;;;;;;;8.02;100.00;97782.38;4992565;28;20124;-70
2023/11/25 11:11:10;;;;;;;3.13;1.42;;;;;;;7.85;100.00;97783.16;4992860;28;20046;-69
2023/11/25 11:13:41;;;;;;;4.65;1.65;;;;;;;7.72;100.00;97799.34;4985766;28;20047;-71
2023/11/25 11:16:38;;;;;;;14.73;12.25;;;;;;;7.49;100.00;97781.25;4974136;28;20039;-70
2023/11/25 11:19:04;;;;;;;18.63;13.05;;;;;;;7.55;100.00;97791.56;4970081;28;20046;-70